Aérodrome :
LOGIN :

S'inscrire | Disclaimer

   EN    FR    IT 

 










Légende :    VFR   VFR Marginal   IFR   IFR Intensif   IFR Très Intensif
Visi : 
Plafond : 
>= 8 km
>= 3000ft
5 à 8 km
1000 à 3000 ft
1500m à 5 km
500 à 1000 ft
800 à 1500m
200 à 500 ft
< 800m
< 200 ft
Symboles :   Orages  Brouillard  Fortes neiges  Fortes précipitations  Vent > 20 kt
SIGMETs :   Divers  Orages  Givrage  Turbulence  Onde Orograph.  Cendres Volcan.







- Altitude de l'aérodrome : 119 ft
- Code IATA : QSR


LIRI - Salerno Pontecagnano

DERNIER METAR :
  • 151150Z 18019KT 8000 SCT040 BKN060 15/11 Q1008

METARs EXPIRÉS :
  • 151050Z 18021KT 8000 SCT040 OVC060 15/12 Q1009
  • 150950Z 17019KT 8000 SCT040 OVC060 15/12 Q1009

TAF N/A
Pas de NOTAMs connus pour ce terrain.
1 SIGMET publié pour la FIR Roma (LIRR) :
 
Turbulence forte
LIRR SIGMET 5 VALID 151100/151300 LIIB
LIRR ROMA FIR SEV TURB FCST WI N4332 E01031 - N4341 E01121 - N4329 E01315 - N4257 E01305 - N4128 E01417 - N4105 E01509 - N4007 E01541 - N4021 E01502 - N4209 E01244 - N4332 E01031 FL020/150 STNR NC=



MET'MAP, la Météo Aéronautique d'un coup d'oeil ! - Copyright ORBIFLY Décembre 2007 - Disclaimer

ORBIFLY MET'MAP TEAM :

Programmation & Développement : Alexandra Zaïnal
Conception & Développement : Baudouin d'Aumeries
Co-Programmation & Développement : Marc-Olivier Méhu
Soutien technique & logistique : Manuel Goepfert

Contact : metmap@orbifly.com




SOURCES & CREDITS :

   NOAA